createdAt,value
2023-05-14T00:00:53.447Z,78.01
2023-05-14T00:03:20.071Z,77.73
2023-05-14T00:05:48.411Z,77.95
2023-05-14T00:08:15.041Z,78.12
2023-05-14T00:10:41.722Z,78.54
2023-05-14T00:13:08.287Z,78.46
2023-05-14T00:15:35.258Z,78.37
2023-05-14T00:18:02.043Z,79.58
2023-05-14T00:20:28.612Z,78.93
2023-05-14T00:22:55.430Z,79.25
2023-05-14T00:25:21.985Z,79.58
2023-05-14T00:27:48.621Z,79.43
2023-05-14T00:30:15.284Z,79.31
2023-05-14T00:32:41.926Z,79.02
2023-05-14T00:35:08.988Z,80.07
2023-05-14T00:37:36.402Z,79.62
2023-05-14T00:40:04.459Z,79.48
2023-05-14T00:42:30.972Z,79.91
2023-05-14T00:44:57.541Z,79.50
2023-05-14T00:47:24.182Z,80.33
2023-05-14T00:49:50.852Z,80.36
2023-05-14T00:52:18.046Z,80.51
2023-05-14T00:54:46.923Z,80.28
2023-05-14T00:57:13.723Z,80.73
2023-05-14T00:59:42.945Z,81.03
2023-05-14T01:02:09.560Z,80.61
2023-05-14T01:04:37.655Z,80.73
2023-05-14T01:07:38.525Z,81.22
2023-05-14T01:10:24.484Z,80.80
2023-05-14T01:12:57.014Z,81.88
2023-05-14T01:15:31.936Z,81.61
2023-05-14T01:18:19.387Z,81.60
2023-05-14T01:20:46.220Z,81.58
2023-05-14T01:23:12.767Z,81.84
2023-05-14T01:25:39.376Z,82.16
2023-05-14T01:28:19.230Z,82.08
2023-05-14T01:30:54.612Z,82.94
2023-05-14T01:33:24.900Z,82.43
2023-05-14T01:35:54.125Z,83.07
2023-05-14T01:38:22.988Z,83.40
2023-05-14T01:40:50.761Z,82.79
2023-05-14T01:43:18.977Z,82.71
2023-05-14T01:45:45.984Z,82.69
2023-05-14T01:48:12.601Z,83.19
2023-05-14T01:50:39.118Z,82.02
2023-05-14T01:53:05.793Z,82.39
2023-05-14T01:55:32.348Z,83.34
2023-05-14T01:57:59.004Z,83.52
2023-05-14T02:00:28.638Z,83.06
2023-05-14T02:02:55.324Z,83.86
2023-05-14T02:05:21.990Z,83.24
2023-05-14T02:07:48.569Z,83.21
2023-05-14T02:10:15.151Z,83.33
2023-05-14T02:12:41.746Z,82.66
2023-05-14T02:15:10.825Z,83.51
2023-05-14T02:17:37.552Z,83.61
2023-05-14T02:20:04.448Z,83.48
2023-05-14T02:22:30.967Z,83.17
2023-05-14T02:24:57.481Z,83.85
2023-05-14T02:27:23.995Z,83.44
2023-05-14T02:29:50.507Z,83.43
2023-05-14T02:32:17.090Z,84.18
2023-05-14T02:34:43.614Z,83.55
2023-05-14T02:37:10.154Z,83.45
2023-05-14T02:39:36.667Z,83.89
2023-05-14T02:42:03.309Z,84.42
2023-05-14T02:44:31.716Z,83.98
2023-05-14T02:46:58.288Z,84.21
2023-05-14T02:49:24.896Z,84.12
2023-05-14T02:51:51.623Z,83.97
2023-05-14T02:54:18.165Z,84.10
2023-05-14T02:56:44.723Z,84.61
2023-05-14T02:59:11.420Z,84.65
2023-05-14T03:01:38.400Z,84.87
2023-05-14T03:04:05.507Z,84.54
2023-05-14T03:06:32.051Z,85.24
2023-05-14T03:08:58.666Z,85.18
2023-05-14T03:11:28.315Z,85.75
2023-05-14T03:13:54.825Z,84.61
2023-05-14T03:16:21.460Z,85.02
2023-05-14T03:18:48.135Z,84.58
2023-05-14T03:21:14.713Z,85.72
2023-05-14T03:23:41.423Z,85.70
2023-05-14T03:26:08.322Z,86.15
2023-05-14T03:28:34.930Z,86.43
2023-05-14T03:31:01.629Z,85.43
2023-05-14T03:33:28.363Z,86.45
2023-05-14T03:35:54.927Z,86.24
2023-05-14T03:38:21.605Z,86.76
2023-05-14T03:40:48.182Z,86.47
2023-05-14T03:43:14.786Z,86.48
2023-05-14T03:45:41.296Z,86.42
2023-05-14T03:48:08.098Z,86.43
2023-05-14T03:50:34.961Z,86.30
2023-05-14T03:53:01.586Z,86.44
2023-05-14T03:55:28.193Z,85.83
2023-05-14T03:57:54.913Z,85.80
2023-05-14T04:00:21.948Z,86.00
2023-05-14T04:02:48.687Z,86.55
2023-05-14T04:05:15.319Z,86.42
2023-05-14T04:07:41.869Z,86.75
2023-05-14T04:10:08.915Z,87.27
2023-05-14T04:12:35.652Z,86.73
2023-05-14T04:15:02.194Z,86.82
2023-05-14T04:17:28.802Z,87.02
2023-05-14T04:19:55.406Z,87.17
2023-05-14T04:22:22.061Z,87.00
2023-05-14T04:24:48.650Z,86.61
2023-05-14T04:27:23.757Z,86.50
2023-05-14T04:29:50.601Z,87.16
2023-05-14T04:32:18.221Z,86.76
2023-05-14T04:34:45.046Z,86.77
2023-05-14T04:37:11.721Z,86.92
2023-05-14T04:39:38.501Z,87.25
2023-05-14T04:42:06.522Z,88.13
2023-05-14T04:44:34.625Z,88.38
2023-05-14T04:47:01.975Z,87.73
2023-05-14T04:49:28.992Z,87.87
2023-05-14T04:51:55.757Z,87.80
2023-05-14T04:54:22.391Z,87.58
2023-05-14T04:56:48.973Z,88.62
2023-05-14T04:59:16.402Z,88.11
2023-05-14T05:01:43.058Z,87.59
2023-05-14T05:04:09.786Z,87.67
2023-05-14T05:06:36.628Z,87.84
2023-05-14T05:09:03.257Z,87.57
2023-05-14T05:11:29.860Z,87.95
2023-05-14T05:13:56.498Z,87.16
2023-05-14T05:16:23.114Z,87.33
2023-05-14T05:18:49.898Z,87.34
2023-05-14T05:21:16.587Z,87.31
2023-05-14T05:23:43.150Z,87.62
2023-05-14T05:26:09.828Z,87.17
2023-05-14T05:28:36.544Z,87.16
2023-05-14T05:31:03.287Z,87.11
2023-05-14T05:33:29.925Z,87.47
2023-05-14T05:35:56.501Z,87.17
2023-05-14T05:38:23.312Z,86.69
2023-05-14T05:40:49.862Z,86.72
2023-05-14T05:43:16.739Z,87.43
2023-05-14T05:45:43.591Z,86.55
2023-05-14T05:48:10.233Z,87.30
2023-05-14T05:50:36.811Z,87.32
2023-05-14T05:53:03.891Z,87.61
2023-05-14T05:55:30.689Z,86.42
2023-05-14T05:58:00.342Z,87.13
2023-05-14T06:00:27.118Z,87.59
2023-05-14T06:02:53.788Z,86.71
2023-05-14T06:05:20.480Z,87.00
2023-05-14T06:07:47.044Z,86.23
2023-05-14T06:10:13.546Z,86.93
2023-05-14T06:12:40.417Z,87.28
2023-05-14T06:15:07.509Z,86.41
2023-05-14T06:17:34.070Z,87.09
2023-05-14T06:20:00.689Z,87.19
2023-05-14T06:22:27.318Z,85.67
2023-05-14T06:24:53.871Z,86.03
2023-05-14T06:27:20.442Z,86.13
2023-05-14T06:29:47.164Z,86.14
2023-05-14T06:32:15.558Z,85.37
2023-05-14T06:34:42.619Z,85.07
2023-05-14T06:37:10.451Z,85.24
2023-05-14T06:39:38.307Z,84.45
2023-05-14T06:42:05.845Z,84.81
2023-05-14T06:44:32.473Z,85.17
2023-05-14T06:46:59.066Z,83.47
2023-05-14T06:49:25.647Z,83.56
2023-05-14T06:51:52.343Z,82.00
2023-05-14T06:54:20.434Z,82.31
2023-05-14T06:56:46.974Z,81.09
2023-05-14T06:59:13.589Z,80.56
2023-05-14T07:01:40.735Z,80.27
2023-05-14T07:04:07.365Z,80.18
2023-05-14T07:06:33.965Z,79.82
2023-05-14T07:09:01.423Z,79.05
2023-05-14T07:11:28.097Z,78.26
2023-05-14T07:13:54.683Z,78.11
2023-05-14T07:16:21.303Z,77.25
2023-05-14T07:18:47.944Z,75.85
2023-05-14T07:21:15.362Z,76.02
2023-05-14T07:23:41.924Z,74.30
2023-05-14T07:26:09.079Z,73.74
2023-05-14T07:28:35.924Z,74.15
2023-05-14T07:31:04.982Z,73.52
2023-05-14T07:33:31.703Z,73.22
2023-05-14T07:35:58.576Z,73.45
2023-05-14T07:38:25.383Z,72.00
2023-05-14T07:40:52.040Z,72.13
2023-05-14T07:43:18.861Z,72.01
2023-05-14T07:45:45.643Z,72.16
2023-05-14T07:48:12.431Z,71.38
2023-05-14T07:50:39.172Z,72.18
2023-05-14T07:53:05.824Z,71.71
2023-05-14T07:55:32.624Z,71.24
2023-05-14T07:57:59.226Z,69.57
2023-05-14T08:00:26.152Z,70.23
2023-05-14T08:02:53.150Z,70.58
2023-05-14T08:05:19.968Z,68.94
2023-05-14T08:07:47.560Z,69.63
2023-05-14T08:10:14.252Z,67.40
2023-05-14T08:12:41.029Z,68.84
2023-05-14T08:15:08.387Z,70.33
2023-05-14T08:17:35.600Z,70.06
2023-05-14T08:20:03.138Z,70.45
2023-05-14T08:22:38.574Z,70.00
2023-05-14T08:25:06.493Z,70.30
2023-05-14T08:27:33.306Z,68.78
2023-05-14T08:29:59.939Z,69.02
2023-05-14T08:32:27.104Z,68.15
2023-05-14T08:34:53.745Z,68.11
2023-05-14T08:37:20.477Z,68.29
2023-05-14T08:39:47.097Z,65.97
2023-05-14T08:42:20.235Z,67.75
2023-05-14T08:44:55.270Z,65.73
2023-05-14T08:47:22.590Z,63.71
2023-05-14T08:49:58.138Z,64.68
2023-05-14T08:52:25.120Z,65.97
2023-05-14T08:54:53.872Z,63.98
2023-05-14T08:57:21.512Z,61.35
2023-05-14T08:59:48.486Z,62.95
2023-05-14T09:02:17.371Z,64.22
2023-05-14T09:04:47.181Z,61.74
2023-05-14T09:07:14.085Z,62.58
2023-05-14T09:09:43.183Z,62.32
2023-05-14T09:12:09.854Z,62.13
2023-05-14T09:14:36.685Z,62.77
2023-05-14T09:17:03.584Z,62.72
2023-05-14T09:19:30.769Z,60.73
2023-05-14T09:21:59.184Z,61.66
2023-05-14T09:24:29.506Z,60.78
2023-05-14T09:26:57.949Z,62.25
2023-05-14T09:29:30.852Z,60.99
2023-05-14T09:32:00.230Z,61.28
2023-05-14T09:34:29.866Z,60.44
2023-05-14T09:37:02.888Z,60.73
2023-05-14T09:39:30.435Z,60.48
2023-05-14T09:41:58.668Z,59.63
2023-05-14T09:44:26.152Z,60.72
2023-05-14T09:46:53.313Z,60.56
2023-05-14T09:49:20.376Z,59.21
2023-05-14T09:51:48.300Z,59.50
2023-05-14T09:54:14.909Z,57.81
2023-05-14T09:56:44.175Z,58.78
2023-05-14T09:59:11.253Z,55.89
2023-05-14T10:01:38.097Z,55.78
2023-05-14T10:04:07.751Z,59.00
2023-05-14T10:06:38.071Z,56.13
2023-05-14T10:09:10.033Z,59.36
2023-05-14T10:11:38.760Z,59.33
2023-05-14T10:14:10.150Z,54.95
2023-05-14T10:16:44.189Z,55.76
2023-05-14T10:19:12.179Z,55.27
2023-05-14T10:21:41.157Z,56.74
2023-05-14T10:24:11.865Z,58.14
2023-05-14T10:26:40.816Z,54.73
2023-05-14T10:29:10.144Z,53.21
2023-05-14T10:31:54.540Z,52.49
2023-05-14T10:34:40.921Z,54.14
2023-05-14T10:37:12.223Z,56.28
2023-05-14T10:39:50.934Z,56.91
2023-05-14T10:42:20.539Z,55.55
2023-05-14T10:44:58.875Z,53.22
2023-05-14T10:47:27.197Z,54.72
2023-05-14T10:49:57.872Z,56.25
2023-05-14T10:52:25.500Z,57.72
2023-05-14T10:55:03.593Z,54.81
2023-05-14T10:57:32.696Z,52.60
2023-05-14T11:00:01.763Z,55.67
2023-05-14T11:02:34.269Z,52.25
2023-05-14T11:05:04.390Z,53.83
2023-05-14T11:07:50.465Z,54.80
2023-05-14T11:10:19.368Z,56.04
2023-05-14T11:12:48.215Z,56.31
2023-05-14T11:15:20.614Z,53.08
2023-05-14T11:17:49.632Z,58.24
2023-05-14T11:20:16.927Z,56.32
2023-05-14T11:22:45.154Z,57.06
2023-05-14T11:25:16.982Z,56.48
2023-05-14T11:27:45.096Z,55.95
2023-05-14T11:30:19.934Z,55.32
2023-05-14T11:32:48.600Z,55.56
2023-05-14T11:35:17.066Z,54.15
2023-05-14T11:37:49.269Z,57.74
2023-05-14T11:40:16.830Z,54.73
2023-05-14T11:42:43.612Z,55.39
2023-05-14T11:45:14.339Z,56.21
2023-05-14T11:47:42.221Z,54.11
2023-05-14T11:50:09.863Z,54.79
2023-05-14T11:52:41.568Z,54.42
2023-05-14T11:55:12.819Z,55.01
2023-05-14T11:57:39.621Z,54.17
2023-05-14T12:00:14.394Z,55.47
2023-05-14T12:02:41.306Z,56.91
2023-05-14T12:05:09.127Z,55.47
2023-05-14T12:07:36.073Z,54.24
2023-05-14T12:10:03.637Z,56.11
2023-05-14T12:12:36.389Z,53.10
2023-05-14T12:15:11.391Z,54.62
2023-05-14T12:17:38.496Z,56.26
2023-05-14T12:20:10.340Z,56.66
2023-05-14T12:22:37.786Z,58.78
2023-05-14T12:25:04.858Z,55.35
2023-05-14T12:27:31.463Z,55.57
2023-05-14T12:30:19.999Z,55.46
2023-05-14T12:32:53.964Z,56.28
2023-05-14T12:35:22.492Z,56.42
2023-05-14T12:37:49.575Z,56.24
2023-05-14T12:40:16.251Z,55.05
2023-05-14T12:42:42.834Z,55.31
2023-05-14T12:45:09.670Z,56.28
2023-05-14T12:47:36.902Z,57.32
2023-05-14T12:50:04.144Z,56.63
2023-05-14T12:55:01.282Z,55.32
2023-05-14T12:57:28.298Z,57.25
2023-05-14T12:59:55.464Z,56.76
2023-05-14T13:02:22.264Z,56.83
2023-05-14T13:04:48.813Z,56.81
2023-05-14T13:07:15.549Z,57.60
2023-05-14T13:09:42.141Z,57.00
2023-05-14T13:12:09.072Z,57.33
2023-05-14T13:14:36.350Z,58.94
2023-05-14T13:17:04.794Z,56.95
2023-05-14T13:19:31.614Z,58.50
2023-05-14T13:21:58.159Z,58.78
2023-05-14T13:24:25.069Z,59.29
2023-05-14T13:26:51.587Z,56.31
2023-05-14T13:29:18.156Z,56.23
2023-05-14T13:31:44.743Z,59.17
2023-05-14T13:34:11.386Z,60.03
2023-05-14T13:36:39.715Z,60.70
2023-05-14T13:39:07.081Z,58.11
2023-05-14T13:41:37.927Z,57.89
2023-05-14T13:44:04.969Z,58.76
2023-05-14T13:46:31.661Z,58.59
2023-05-14T13:48:58.256Z,61.39
2023-05-14T13:51:25.087Z,58.48
2023-05-14T13:53:51.721Z,59.20
2023-05-14T13:56:18.685Z,59.36
2023-05-14T13:58:45.232Z,61.73
2023-05-14T14:01:11.849Z,59.83
2023-05-14T14:03:38.415Z,58.94
2023-05-14T14:06:05.031Z,59.22
2023-05-14T14:08:31.669Z,60.43
2023-05-14T14:10:58.244Z,59.25
2023-05-14T14:13:24.925Z,60.37
2023-05-14T14:15:51.751Z,58.79
2023-05-14T14:18:18.540Z,59.39
2023-05-14T14:20:45.105Z,57.94
2023-05-14T14:23:11.623Z,58.26
2023-05-14T14:25:38.225Z,58.30
2023-05-14T14:28:04.836Z,59.13
2023-05-14T14:30:32.486Z,59.61
2023-05-14T14:33:01.162Z,60.59
2023-05-14T14:35:27.864Z,60.33
2023-05-14T14:37:55.612Z,59.92
2023-05-14T14:40:23.703Z,58.22
2023-05-14T14:42:50.335Z,57.46
2023-05-14T14:45:16.894Z,57.81
2023-05-14T14:47:46.102Z,58.42
2023-05-14T14:50:13.443Z,59.02
2023-05-14T14:52:45.422Z,58.77
2023-05-14T14:55:12.630Z,59.07
2023-05-14T14:57:39.257Z,60.80
2023-05-14T15:00:07.179Z,61.99
2023-05-14T15:02:34.198Z,59.74
2023-05-14T15:05:01.012Z,57.64
2023-05-14T15:07:27.678Z,58.79
2023-05-14T15:09:55.791Z,58.51
2023-05-14T15:12:22.365Z,58.58
2023-05-14T15:14:48.914Z,58.49
2023-05-14T15:17:15.452Z,60.53
2023-05-14T15:19:42.029Z,59.51
2023-05-14T15:22:08.727Z,58.83
2023-05-14T15:24:35.383Z,58.71
2023-05-14T15:27:01.956Z,59.59
2023-05-14T15:29:28.678Z,59.59
2023-05-14T15:31:55.577Z,59.38
2023-05-14T15:34:22.138Z,58.23
2023-05-14T15:36:48.707Z,57.89
2023-05-14T15:39:15.192Z,57.48
2023-05-14T15:41:41.755Z,58.09
2023-05-14T15:44:08.347Z,58.83
2023-05-14T15:46:35.645Z,58.07
2023-05-14T15:49:02.335Z,57.07
2023-05-14T15:51:29.129Z,58.72
2023-05-14T15:53:57.203Z,58.20
2023-05-14T15:56:23.851Z,58.85
2023-05-14T15:58:50.632Z,58.96
2023-05-14T16:01:19.355Z,58.75
2023-05-14T16:03:46.143Z,59.36
2023-05-14T16:06:12.787Z,58.98
2023-05-14T16:08:39.338Z,59.70
2023-05-14T16:11:06.392Z,59.95
2023-05-14T16:13:33.688Z,60.69
2023-05-14T16:16:01.162Z,62.06
2023-05-14T16:18:27.854Z,61.74
2023-05-14T16:20:54.380Z,60.73
2023-05-14T16:23:22.547Z,62.24
2023-05-14T16:25:49.153Z,62.50
2023-05-14T16:28:15.904Z,62.13
2023-05-14T16:30:42.481Z,62.25
2023-05-14T16:33:09.139Z,62.56
2023-05-14T16:35:35.759Z,64.76
2023-05-14T16:38:02.283Z,63.04
2023-05-14T16:40:28.916Z,62.87
2023-05-14T16:42:55.716Z,63.74
2023-05-14T16:45:22.371Z,63.51
2023-05-14T16:47:49.057Z,62.79
2023-05-14T16:50:15.826Z,62.75
2023-05-14T16:52:42.442Z,62.51
2023-05-14T16:55:09.336Z,62.04
2023-05-14T16:57:35.967Z,62.86
2023-05-14T17:00:05.982Z,61.85
2023-05-14T17:02:33.198Z,62.31
2023-05-14T17:05:00.078Z,63.46
2023-05-14T17:07:27.105Z,63.91
2023-05-14T17:09:53.720Z,63.95
2023-05-14T17:12:20.536Z,64.64
2023-05-14T17:14:47.194Z,65.13
2023-05-14T17:17:13.790Z,66.33
2023-05-14T17:19:42.316Z,67.62
2023-05-14T17:22:09.110Z,67.59
2023-05-14T17:24:36.471Z,67.71
2023-05-14T17:27:03.473Z,68.78
2023-05-14T17:29:30.080Z,68.53
2023-05-14T17:31:57.113Z,69.15
2023-05-14T17:34:24.236Z,69.00
2023-05-14T17:36:51.054Z,68.68
2023-05-14T17:39:17.665Z,68.86
2023-05-14T17:41:44.299Z,69.09
2023-05-14T17:44:12.881Z,68.96
2023-05-14T17:46:41.803Z,69.67
2023-05-14T17:49:08.405Z,68.74
2023-05-14T17:51:34.957Z,68.75
2023-05-14T17:54:01.616Z,69.32
2023-05-14T17:56:32.974Z,70.01
2023-05-14T17:59:00.021Z,69.82
2023-05-14T18:01:26.692Z,70.31
2023-05-14T18:03:53.392Z,70.53
2023-05-14T18:06:20.073Z,71.09
2023-05-14T18:08:48.723Z,70.98
2023-05-14T18:11:15.568Z,71.49
2023-05-14T18:13:42.393Z,72.06
2023-05-14T18:16:09.022Z,72.96
2023-05-14T18:18:35.705Z,72.17
2023-05-14T18:21:02.418Z,72.13
2023-05-14T18:23:29.041Z,73.15
2023-05-14T18:25:55.955Z,73.34
2023-05-14T18:28:22.792Z,72.74
2023-05-14T18:30:49.772Z,72.71
2023-05-14T18:33:16.446Z,72.68
2023-05-14T18:35:43.686Z,73.21
2023-05-14T18:38:11.955Z,72.21
2023-05-14T18:40:38.625Z,72.64
2023-05-14T18:43:05.449Z,72.84
2023-05-14T18:45:32.313Z,72.69
2023-05-14T18:47:59.022Z,72.28
2023-05-14T18:50:25.880Z,73.29
2023-05-14T18:52:52.946Z,73.42
2023-05-14T18:55:19.611Z,72.82
2023-05-14T18:57:48.578Z,72.80
2023-05-14T19:00:15.736Z,72.59
2023-05-14T19:02:44.499Z,72.19
2023-05-14T19:05:11.200Z,72.86
2023-05-14T19:07:38.573Z,72.80
2023-05-14T19:10:05.962Z,73.75
2023-05-14T19:12:32.640Z,73.86
2023-05-14T19:14:59.297Z,74.97
2023-05-14T19:17:26.301Z,75.45
2023-05-14T19:19:52.906Z,76.12
2023-05-14T19:22:19.607Z,75.38
2023-05-14T19:24:46.313Z,76.87
2023-05-14T19:27:16.214Z,76.48
2023-05-14T19:29:43.929Z,76.79
2023-05-14T19:32:12.110Z,76.83
2023-05-14T19:34:39.156Z,75.50
2023-05-14T19:37:05.817Z,74.97
2023-05-14T19:39:32.362Z,75.85
2023-05-14T19:41:58.953Z,75.97
2023-05-14T19:44:25.761Z,75.84
2023-05-14T19:46:52.545Z,76.64
2023-05-14T19:49:19.158Z,77.04
2023-05-14T19:51:45.863Z,76.80
2023-05-14T19:54:12.497Z,76.93
2023-05-14T19:56:39.118Z,76.47
2023-05-14T19:59:05.860Z,77.79
2023-05-14T20:01:34.096Z,77.46
2023-05-14T20:04:00.799Z,77.29
2023-05-14T20:06:27.338Z,76.99
2023-05-14T20:08:55.138Z,77.94
2023-05-14T20:11:21.719Z,78.19
2023-05-14T20:13:48.246Z,78.44
2023-05-14T20:16:16.837Z,78.34
2023-05-14T20:18:44.248Z,78.22
2023-05-14T20:21:11.004Z,79.19
2023-05-14T20:23:37.722Z,78.31
2023-05-14T20:26:04.508Z,78.97
2023-05-14T20:28:31.343Z,78.73
2023-05-14T20:31:02.842Z,78.56
2023-05-14T20:33:30.152Z,78.56
2023-05-14T20:35:56.819Z,79.50
2023-05-14T20:38:23.423Z,79.89
2023-05-14T20:40:49.997Z,78.78
2023-05-14T20:43:16.561Z,78.91
2023-05-14T20:45:43.109Z,78.77
2023-05-14T20:48:12.050Z,78.49
2023-05-14T20:50:38.652Z,79.16
2023-05-14T20:53:05.185Z,79.59
2023-05-14T20:55:31.777Z,79.52
2023-05-14T20:57:58.523Z,79.54
2023-05-14T21:00:25.206Z,79.49
2023-05-14T21:02:51.918Z,79.15
2023-05-14T21:05:19.065Z,80.07
2023-05-14T21:07:45.718Z,79.89
2023-05-14T21:10:12.233Z,80.37
2023-05-14T21:12:38.760Z,80.02
2023-05-14T21:15:05.830Z,80.10
2023-05-14T21:17:32.482Z,81.07
2023-05-14T21:19:59.065Z,80.50
2023-05-14T21:22:27.103Z,80.49
2023-05-14T21:24:55.119Z,80.61
2023-05-14T21:27:22.458Z,81.19
2023-05-14T21:29:49.060Z,80.60
2023-05-14T21:32:15.713Z,80.75
2023-05-14T21:34:42.401Z,81.31
2023-05-14T21:37:09.030Z,81.30
2023-05-14T21:39:35.647Z,81.22
2023-05-14T21:42:02.259Z,81.14
2023-05-14T21:44:28.901Z,81.54
2023-05-14T21:46:55.654Z,82.24
2023-05-14T21:49:22.156Z,81.71
2023-05-14T21:51:52.871Z,81.79
2023-05-14T21:54:19.889Z,81.72
2023-05-14T21:56:46.763Z,81.94
2023-05-14T21:59:13.350Z,82.27
2023-05-14T22:01:56.069Z,81.90
2023-05-14T22:04:26.429Z,82.03
2023-05-14T22:06:53.065Z,82.31
2023-05-14T22:09:19.652Z,82.05
2023-05-14T22:11:46.297Z,82.89
2023-05-14T22:14:12.831Z,82.78
2023-05-14T22:16:39.451Z,83.75
2023-05-14T22:19:06.792Z,83.25
2023-05-14T22:21:33.829Z,84.18
2023-05-14T22:24:00.530Z,83.39
2023-05-14T22:26:27.085Z,83.97
2023-05-14T22:28:53.722Z,83.42
2023-05-14T22:31:20.351Z,84.11
2023-05-14T22:33:46.942Z,83.48
2023-05-14T22:36:13.526Z,83.79
2023-05-14T22:38:41.173Z,84.65
2023-05-14T22:41:07.810Z,83.69
2023-05-14T22:43:34.387Z,84.16
2023-05-14T22:46:01.064Z,84.78
2023-05-14T22:48:27.714Z,84.35
2023-05-14T22:50:54.307Z,84.51
2023-05-14T22:53:20.842Z,84.00
2023-05-14T22:55:50.532Z,84.53
2023-05-14T22:58:17.110Z,84.24
2023-05-14T23:00:43.846Z,85.27
2023-05-14T23:03:10.449Z,85.22
2023-05-14T23:05:36.974Z,85.10
2023-05-14T23:08:03.743Z,84.89
2023-05-14T23:10:30.362Z,85.30
2023-05-14T23:12:56.890Z,85.37
2023-05-14T23:15:23.626Z,85.26
2023-05-14T23:17:50.623Z,86.01
2023-05-14T23:20:17.360Z,86.58
2023-05-14T23:22:43.943Z,85.69
2023-05-14T23:25:10.972Z,85.98
2023-05-14T23:27:41.012Z,86.25
2023-05-14T23:30:08.010Z,86.02
2023-05-14T23:32:34.738Z,86.02
2023-05-14T23:35:01.302Z,86.93
2023-05-14T23:37:28.030Z,86.21
2023-05-14T23:39:54.624Z,86.67
2023-05-14T23:42:21.146Z,86.22
2023-05-14T23:44:47.983Z,86.25
2023-05-14T23:47:14.662Z,86.15
2023-05-14T23:49:42.625Z,86.50
2023-05-14T23:52:09.270Z,86.55
2023-05-14T23:54:35.801Z,86.55
2023-05-14T23:57:03.984Z,87.01
2023-05-14T23:59:30.561Z,86.97
